createdAt,value
2022-10-01T00:01:17.384Z,2.47
2022-10-01T00:03:44.513Z,1.90
2022-10-01T00:06:18.043Z,1.90
2022-10-01T00:08:48.977Z,2.40
2022-10-01T00:11:22.129Z,2.22
2022-10-01T00:13:49.794Z,2.00
2022-10-01T00:16:19.923Z,2.00
2022-10-01T00:18:48.065Z,2.35
2022-10-01T00:21:21.767Z,2.08
2022-10-01T00:23:55.349Z,2.28
2022-10-01T00:26:27.817Z,2.33
2022-10-01T00:28:57.079Z,2.05
2022-10-01T00:31:23.858Z,2.03
2022-10-01T00:33:58.251Z,2.17
2022-10-01T00:36:26.278Z,2.20
2022-10-01T00:38:52.936Z,2.08
2022-10-01T00:41:19.768Z,2.17
2022-10-01T00:43:50.038Z,2.05
2022-10-01T00:46:36.942Z,1.80
2022-10-01T00:49:08.804Z,2.42
2022-10-01T00:51:42.500Z,1.80
2022-10-01T00:54:15.983Z,1.80
2022-10-01T00:56:44.743Z,2.00
2022-10-01T00:59:12.976Z,1.45
2022-10-01T01:01:39.622Z,1.45
2022-10-01T01:04:16.604Z,1.48
2022-10-01T01:06:53.746Z,1.73
2022-10-01T01:09:21.434Z,1.60
2022-10-01T01:11:58.158Z,1.70
2022-10-01T01:14:56.234Z,1.70
2022-10-01T01:17:29.743Z,1.70
2022-10-01T01:19:56.428Z,1.70
2022-10-01T01:22:28.771Z,1.55
2022-10-01T01:25:19.351Z,1.85
2022-10-01T01:28:09.449Z,1.67
2022-10-01T01:30:41.135Z,1.92
2022-10-01T01:33:17.680Z,2.58
2022-10-01T01:35:52.231Z,1.83
2022-10-01T01:38:30.354Z,1.80
2022-10-01T01:41:01.581Z,1.92
2022-10-01T01:43:40.840Z,1.90
2022-10-01T01:46:11.226Z,2.38
2022-10-01T01:48:40.056Z,1.90
2022-10-01T01:51:20.474Z,2.30
2022-10-01T01:53:47.081Z,2.00
2022-10-01T01:56:14.148Z,1.92
2022-10-01T01:58:40.920Z,1.95
2022-10-01T02:01:07.792Z,2.25
2022-10-01T02:03:35.370Z,2.17
2022-10-01T02:06:19.361Z,2.47
2022-10-01T02:08:57.350Z,2.28
2022-10-01T02:11:38.116Z,2.38
2022-10-01T02:16:57.838Z,2.60
2022-10-01T02:19:40.334Z,2.90
2022-10-01T02:22:24.834Z,2.67
2022-10-01T02:24:57.952Z,2.50
2022-10-01T02:27:27.633Z,2.40
2022-10-01T02:29:58.763Z,2.08
2022-10-01T02:32:28.895Z,2.42
2022-10-01T02:34:56.694Z,2.22
2022-10-01T02:37:26.094Z,2.40
2022-10-01T02:39:58.061Z,2.60
2022-10-01T02:42:28.323Z,2.58
2022-10-01T02:44:59.103Z,2.65
2022-10-01T02:50:02.771Z,2.47
2022-10-01T02:52:42.631Z,3.10
2022-10-01T02:55:24.038Z,2.37
2022-10-01T02:57:50.836Z,2.90
2022-10-01T03:00:21.776Z,3.30
2022-10-01T03:02:49.692Z,3.35
2022-10-01T03:05:17.384Z,2.60
2022-10-01T03:07:44.497Z,3.00
2022-10-01T03:10:12.040Z,2.90
2022-10-01T03:12:43.883Z,2.90
2022-10-01T03:15:11.717Z,2.53
2022-10-01T03:17:38.436Z,2.53
2022-10-01T03:20:06.026Z,2.40
2022-10-01T03:22:33.111Z,2.90
2022-10-01T03:24:59.683Z,2.70
2022-10-01T03:27:26.332Z,2.45
2022-10-01T03:29:53.011Z,1.85
2022-10-01T03:32:20.366Z,2.67
2022-10-01T03:34:46.964Z,2.10
2022-10-01T03:37:13.756Z,2.30
2022-10-01T03:39:40.318Z,2.58
2022-10-01T03:42:07.230Z,2.50
2022-10-01T03:44:34.194Z,2.85
2022-10-01T03:47:00.924Z,2.80
2022-10-01T03:49:28.013Z,3.22
2022-10-01T03:51:54.844Z,2.88
2022-10-01T03:54:21.605Z,2.58
2022-10-01T03:56:49.004Z,2.08
2022-10-01T03:59:15.606Z,2.75
2022-10-01T04:01:42.279Z,2.70
2022-10-01T04:04:09.411Z,2.72
2022-10-01T04:06:36.194Z,2.85
2022-10-01T04:09:02.948Z,2.78
2022-10-01T04:11:30.254Z,3.03
2022-10-01T04:13:59.829Z,3.10
2022-10-01T04:16:26.554Z,2.60
2022-10-01T04:18:53.771Z,2.65
2022-10-01T04:21:20.324Z,2.58
2022-10-01T04:23:46.993Z,2.63
2022-10-01T04:26:13.672Z,3.00
2022-10-01T04:28:40.430Z,3.15
2022-10-01T04:31:25.396Z,3.00
2022-10-01T04:33:57.081Z,3.38
2022-10-01T04:36:25.011Z,3.17
2022-10-01T04:39:00.903Z,3.05
2022-10-01T04:41:30.777Z,3.05
2022-10-01T04:43:59.937Z,3.25
2022-10-01T04:46:27.922Z,3.15
2022-10-01T04:48:54.623Z,2.85
2022-10-01T04:51:21.443Z,3.03
2022-10-01T04:53:48.211Z,3.30
2022-10-01T04:56:14.759Z,2.92
2022-10-01T04:58:42.008Z,2.90
2022-10-01T05:01:08.697Z,2.97
2022-10-01T05:03:35.534Z,3.00
2022-10-01T05:06:02.034Z,3.53
2022-10-01T05:08:28.733Z,2.92
2022-10-01T05:10:55.227Z,3.55
2022-10-01T05:13:21.866Z,3.08
2022-10-01T05:15:52.268Z,2.80
2022-10-01T05:18:19.137Z,2.75
2022-10-01T05:20:45.866Z,2.80
2022-10-01T05:23:12.592Z,2.72
2022-10-01T05:25:39.366Z,3.55
2022-10-01T05:28:06.224Z,2.70
2022-10-01T05:30:34.131Z,3.47
2022-10-01T05:33:03.416Z,2.80
2022-10-01T05:35:30.836Z,2.75
2022-10-01T05:37:59.333Z,2.88
2022-10-01T05:40:27.571Z,2.53
2022-10-01T05:42:58.411Z,2.47
2022-10-01T05:45:27.529Z,2.67
2022-10-01T05:47:59.353Z,2.63
2022-10-01T05:50:26.802Z,2.67
2022-10-01T05:52:54.697Z,2.30
2022-10-01T05:55:22.551Z,2.40
2022-10-01T05:57:57.472Z,2.53
2022-10-01T06:00:26.530Z,2.97
2022-10-01T06:02:53.711Z,2.58
2022-10-01T06:05:21.399Z,2.25
2022-10-01T06:07:48.958Z,2.33
2022-10-01T06:10:15.988Z,2.15
2022-10-01T06:12:43.422Z,2.10
2022-10-01T06:15:11.508Z,2.08
2022-10-01T06:17:43.850Z,2.10
2022-10-01T06:20:16.167Z,3.00
2022-10-01T06:22:43.832Z,2.15
2022-10-01T06:25:12.658Z,1.98
2022-10-01T06:27:39.515Z,1.95
2022-10-01T06:30:07.132Z,2.33
2022-10-01T06:32:35.185Z,1.90
2022-10-01T06:35:03.567Z,1.80
2022-10-01T06:37:30.238Z,1.88
2022-10-01T06:39:56.980Z,2.38
2022-10-01T06:42:23.717Z,2.38
2022-10-01T06:44:50.477Z,1.73
2022-10-01T06:47:17.017Z,2.13
2022-10-01T06:49:47.301Z,2.08
2022-10-01T06:55:01.642Z,2.33
2022-10-01T06:57:28.900Z,2.00
2022-10-01T06:59:55.825Z,1.60
2022-10-01T07:02:28.075Z,1.98
2022-10-01T07:05:01.677Z,1.70
2022-10-01T07:07:32.995Z,1.60
2022-10-01T07:09:59.558Z,1.67
2022-10-01T07:12:26.553Z,1.60
2022-10-01T07:14:54.049Z,1.60
2022-10-01T07:17:21.200Z,1.52
2022-10-01T07:19:47.845Z,1.70
2022-10-01T07:22:14.464Z,1.63
2022-10-01T07:24:41.108Z,1.50
2022-10-01T07:27:07.787Z,1.30
2022-10-01T07:29:34.778Z,1.40
2022-10-01T07:32:01.899Z,1.40
2022-10-01T07:34:31.086Z,1.40
2022-10-01T07:36:57.635Z,1.50
2022-10-01T07:39:24.340Z,1.80
2022-10-01T07:41:51.853Z,2.53
2022-10-01T07:44:19.437Z,1.65
2022-10-01T07:46:47.186Z,1.85
2022-10-01T07:49:14.617Z,1.90
2022-10-01T07:51:43.549Z,1.55
2022-10-01T07:54:10.587Z,1.77
2022-10-01T07:56:37.597Z,1.50
2022-10-01T07:59:04.358Z,2.03
2022-10-01T08:01:34.033Z,1.52
2022-10-01T08:04:01.193Z,1.80
2022-10-01T08:06:27.757Z,1.70
2022-10-01T08:08:54.358Z,1.75
2022-10-01T08:11:20.828Z,1.30
2022-10-01T08:13:47.533Z,2.28
2022-10-01T08:16:14.414Z,1.70
2022-10-01T08:18:41.038Z,1.50
2022-10-01T08:21:07.618Z,1.88
2022-10-01T08:23:35.006Z,1.52
2022-10-01T08:26:07.439Z,1.35
2022-10-01T08:28:35.619Z,2.00
2022-10-01T08:31:10.021Z,1.60
2022-10-01T08:33:38.514Z,1.52
2022-10-01T08:36:09.548Z,1.67
2022-10-01T08:38:37.042Z,1.92
2022-10-01T08:41:23.661Z,1.63
2022-10-01T08:43:51.932Z,1.65
2022-10-01T08:46:22.867Z,2.15
2022-10-01T08:48:57.371Z,2.00
2022-10-01T08:51:27.328Z,2.28
2022-10-01T08:54:06.956Z,2.47
2022-10-01T08:56:37.750Z,2.38
2022-10-01T09:01:44.045Z,2.08
2022-10-01T09:04:11.264Z,2.15
2022-10-01T09:06:38.533Z,1.85
2022-10-01T09:09:25.216Z,2.20
2022-10-01T09:12:14.276Z,2.53
2022-10-01T09:15:00.354Z,2.25
2022-10-01T09:17:46.627Z,2.00
2022-10-01T09:20:27.548Z,2.40
2022-10-01T09:23:14.788Z,2.20
2022-10-01T09:25:43.386Z,2.13
2022-10-01T09:28:30.851Z,2.20
2022-10-01T09:31:07.147Z,2.20
2022-10-01T09:33:37.664Z,2.22
2022-10-01T09:36:30.425Z,2.17
2022-10-01T09:39:05.467Z,1.90
2022-10-01T09:41:32.632Z,1.95
2022-10-01T09:43:59.577Z,1.98
2022-10-01T09:46:26.772Z,2.13
2022-10-01T09:49:09.057Z,2.30
2022-10-01T09:51:40.707Z,2.17
2022-10-01T09:54:35.413Z,1.80
2022-10-01T09:57:07.569Z,2.08
2022-10-01T10:00:02.383Z,1.83
2022-10-01T10:02:48.864Z,1.65
2022-10-01T10:05:24.843Z,1.73
2022-10-01T10:07:55.096Z,1.83
2022-10-01T10:10:36.019Z,1.92
2022-10-01T10:13:24.466Z,1.73
2022-10-01T10:15:57.496Z,1.50
2022-10-01T10:18:35.899Z,1.65
2022-10-01T10:21:07.921Z,1.48
2022-10-01T10:23:34.780Z,1.52
2022-10-01T10:26:03.706Z,1.50
2022-10-01T10:28:43.784Z,1.50
2022-10-01T10:31:16.238Z,1.83
2022-10-01T10:33:47.329Z,1.35
2022-10-01T10:36:16.781Z,1.67
2022-10-01T10:38:49.595Z,1.70
2022-10-01T10:41:19.805Z,1.55
2022-10-01T10:43:51.325Z,1.70
2022-10-01T10:46:37.908Z,1.70
2022-10-01T10:49:21.270Z,1.15
2022-10-01T10:51:56.492Z,1.80
2022-10-01T10:54:35.352Z,1.60
2022-10-01T10:57:21.222Z,1.48
2022-10-01T11:00:17.463Z,1.23
2022-10-01T11:02:53.244Z,1.30
2022-10-01T11:05:31.755Z,1.38
2022-10-01T11:08:00.972Z,1.15
2022-10-01T11:10:33.531Z,1.25
2022-10-01T11:13:09.228Z,1.00
2022-10-01T11:15:43.279Z,1.42
2022-10-01T11:18:18.464Z,1.38
2022-10-01T11:21:00.707Z,1.70
2022-10-01T11:23:56.545Z,1.25
2022-10-01T11:26:41.017Z,1.63
2022-10-01T11:29:22.983Z,1.58
2022-10-01T11:32:26.174Z,1.70
2022-10-01T11:35:09.897Z,1.98
2022-10-01T11:37:47.558Z,2.30
2022-10-01T11:40:21.751Z,2.33
2022-10-01T11:42:51.034Z,2.58
2022-10-01T11:45:32.692Z,2.58
2022-10-01T11:48:06.179Z,2.20
2022-10-01T11:50:42.742Z,2.42
2022-10-01T11:53:17.036Z,2.90
2022-10-01T11:56:49.481Z,2.40
2022-10-01T11:59:37.645Z,2.88
2022-10-01T12:02:04.369Z,3.35
2022-10-01T12:04:43.412Z,3.35
2022-10-01T12:07:20.350Z,3.40
2022-10-01T12:09:47.293Z,3.47
2022-10-01T12:12:28.187Z,2.47
2022-10-01T12:15:19.484Z,1.50
2022-10-01T12:17:52.618Z,0.80
2022-10-01T12:20:47.614Z,1.00
2022-10-01T12:23:19.575Z,1.10
2022-10-01T12:26:01.675Z,1.00
2022-10-01T12:28:57.937Z,1.00
2022-10-01T12:31:58.576Z,1.38
2022-10-01T12:34:25.160Z,4.43
2022-10-01T12:36:51.685Z,6.25
2022-10-01T12:39:38.977Z,2.65
2022-10-01T12:42:24.437Z,2.22
2022-10-01T12:45:02.981Z,1.50
2022-10-01T12:47:57.753Z,1.10
2022-10-01T12:50:52.032Z,1.63
2022-10-01T12:53:30.817Z,1.42
2022-10-01T12:56:30.925Z,1.30
2022-10-01T12:59:38.537Z,0.98
2022-10-01T13:02:31.201Z,1.13
2022-10-01T13:05:10.067Z,2.10
2022-10-01T13:07:58.555Z,1.33
2022-10-01T13:10:29.653Z,1.25
2022-10-01T13:13:10.170Z,1.67
2022-10-01T13:15:39.537Z,1.30
2022-10-01T13:18:48.655Z,1.33
2022-10-01T13:21:25.524Z,1.48
2022-10-01T13:24:05.624Z,0.90
2022-10-01T13:26:41.489Z,0.90
2022-10-01T13:29:23.324Z,0.93
2022-10-01T13:31:59.858Z,1.40
2022-10-01T13:34:41.643Z,1.50
2022-10-01T13:37:16.166Z,1.00
2022-10-01T13:39:46.857Z,1.10
2022-10-01T13:44:53.038Z,1.05
2022-10-01T13:47:21.166Z,0.90
2022-10-01T13:50:24.671Z,1.10
2022-10-01T13:52:53.178Z,0.90
2022-10-01T13:55:28.904Z,1.30
2022-10-01T13:58:42.024Z,1.38
2022-10-01T14:01:16.202Z,1.00
2022-10-01T14:03:55.566Z,1.40
2022-10-01T14:06:31.210Z,1.35
2022-10-01T14:09:05.306Z,1.10
2022-10-01T14:11:54.714Z,1.05
2022-10-01T14:14:56.743Z,0.80
2022-10-01T14:17:28.921Z,1.10
2022-10-01T14:19:57.715Z,0.88
2022-10-01T14:22:49.428Z,0.70
2022-10-01T14:25:53.692Z,0.65
2022-10-01T14:28:39.263Z,0.90
2022-10-01T14:31:25.464Z,0.88
2022-10-01T14:34:04.219Z,0.70
2022-10-01T14:36:37.603Z,0.65
2022-10-01T14:39:13.503Z,0.77
2022-10-01T14:41:40.290Z,0.70
2022-10-01T14:44:18.423Z,0.95
2022-10-01T14:46:45.824Z,1.27
2022-10-01T14:49:20.841Z,1.77
2022-10-01T14:51:58.848Z,1.02
2022-10-01T14:54:26.708Z,1.48
2022-10-01T14:56:53.839Z,1.90
2022-10-01T14:59:30.842Z,0.93
2022-10-01T15:02:00.299Z,1.20
2022-10-01T15:04:27.111Z,1.30
2022-10-01T15:06:54.295Z,0.88
2022-10-01T15:09:21.094Z,0.80
2022-10-01T15:11:50.119Z,0.68
2022-10-01T15:14:24.815Z,0.60
2022-10-01T15:16:52.369Z,0.60
2022-10-01T15:19:22.970Z,0.50
2022-10-01T15:21:56.509Z,0.22
2022-10-01T15:24:32.049Z,0.20
2022-10-01T15:26:58.983Z,0.30
2022-10-01T15:29:25.930Z,0.30
2022-10-01T15:31:53.849Z,0.30
2022-10-01T15:34:23.943Z,0.30
2022-10-01T15:36:51.300Z,0.20
2022-10-01T15:39:33.911Z,0.25
2022-10-01T15:42:08.852Z,0.20
2022-10-01T15:44:46.377Z,0.28
2022-10-01T15:47:26.662Z,0.30
2022-10-01T15:50:05.429Z,0.20
2022-10-01T15:52:50.618Z,0.20
2022-10-01T15:55:27.523Z,0.10
2022-10-01T15:58:16.919Z,0.40
2022-10-01T16:00:47.551Z,0.25
2022-10-01T16:05:48.338Z,0.20
2022-10-01T16:08:21.796Z,0.20
2022-10-01T16:11:09.282Z,0.20
2022-10-01T16:13:39.054Z,0.30
2022-10-01T16:16:12.829Z,0.77
2022-10-01T16:18:40.505Z,0.20
2022-10-01T16:21:09.815Z,0.20
2022-10-01T16:23:44.034Z,0.10
2022-10-01T16:26:32.443Z,0.10
2022-10-01T16:29:19.528Z,0.20
2022-10-01T16:31:46.695Z,0.17
2022-10-01T16:34:16.119Z,0.30
2022-10-01T16:36:43.983Z,0.30
2022-10-01T16:39:13.710Z,0.30
2022-10-01T16:41:42.351Z,0.20
2022-10-01T16:44:12.726Z,0.20
2022-10-01T16:46:40.055Z,0.20
2022-10-01T16:49:12.457Z,0.20
2022-10-01T16:51:40.957Z,0.22
2022-10-01T16:54:23.822Z,0.28
2022-10-01T16:56:52.277Z,0.30
2022-10-01T16:59:22.378Z,0.20
2022-10-01T17:01:51.396Z,0.20
2022-10-01T17:04:18.670Z,0.30
2022-10-01T17:06:45.208Z,0.30
2022-10-01T17:09:11.999Z,0.35
2022-10-01T17:11:39.269Z,0.60
2022-10-01T17:14:09.824Z,0.60
2022-10-01T17:16:36.709Z,0.15
2022-10-01T17:19:03.670Z,0.25
2022-10-01T17:21:30.901Z,0.43
2022-10-01T17:23:57.502Z,0.22
2022-10-01T17:26:25.100Z,0.30
2022-10-01T17:28:51.788Z,0.30
2022-10-01T17:31:18.464Z,0.35
2022-10-01T17:33:45.583Z,0.47
2022-10-01T17:36:12.110Z,0.40
2022-10-01T17:38:40.228Z,0.60
2022-10-01T17:41:07.553Z,0.43
2022-10-01T17:43:34.475Z,0.60
2022-10-01T17:46:01.506Z,0.38
2022-10-01T17:48:29.881Z,0.30
2022-10-01T17:51:05.476Z,0.30
2022-10-01T17:53:38.442Z,0.30
2022-10-01T17:56:12.389Z,0.30
2022-10-01T17:58:44.173Z,0.40
2022-10-01T18:01:19.760Z,0.50
2022-10-01T18:03:46.629Z,0.32
2022-10-01T18:06:16.307Z,0.30
2022-10-01T18:08:58.418Z,0.32
2022-10-01T18:11:27.065Z,0.20
2022-10-01T18:13:53.686Z,0.40
2022-10-01T18:16:20.783Z,0.22
2022-10-01T18:21:34.226Z,0.35
2022-10-01T18:26:48.355Z,0.20
2022-10-01T18:29:20.367Z,0.30
2022-10-01T18:31:51.687Z,0.30
2022-10-01T18:34:26.338Z,0.47
2022-10-01T18:37:03.868Z,0.20
2022-10-01T18:39:38.800Z,0.30
2022-10-01T18:42:32.435Z,0.25
2022-10-01T18:45:01.937Z,0.30
2022-10-01T18:48:04.110Z,0.30
2022-10-01T18:50:40.577Z,0.95
2022-10-01T18:53:19.337Z,0.30
2022-10-01T18:56:08.225Z,0.45
2022-10-01T18:59:03.044Z,0.30
2022-10-01T19:01:52.948Z,0.30
2022-10-01T19:04:50.746Z,0.40
2022-10-01T19:07:32.841Z,0.20
2022-10-01T19:10:14.814Z,0.30
2022-10-01T19:13:13.722Z,0.20
2022-10-01T19:16:09.831Z,0.20
2022-10-01T19:18:46.105Z,0.50
2022-10-01T19:21:28.254Z,0.75
2022-10-01T19:24:23.111Z,0.30
2022-10-01T19:26:57.689Z,0.40
2022-10-01T19:30:07.193Z,0.40
2022-10-01T19:32:40.695Z,0.60
2022-10-01T19:35:29.731Z,0.30
2022-10-01T19:38:05.302Z,0.30
2022-10-01T19:40:43.222Z,0.45
2022-10-01T19:43:18.949Z,0.38
2022-10-01T19:45:55.130Z,0.60
2022-10-01T19:48:41.949Z,0.50
2022-10-01T19:51:12.615Z,0.40
2022-10-01T19:56:14.949Z,0.40
2022-10-01T19:58:41.535Z,0.20
2022-10-01T20:01:15.812Z,0.30
2022-10-01T20:03:57.530Z,0.28
2022-10-01T20:06:41.968Z,0.30
2022-10-01T20:09:20.698Z,0.30
2022-10-01T20:12:11.624Z,0.20
2022-10-01T20:18:00.616Z,0.22
2022-10-01T20:20:39.778Z,0.25
2022-10-01T20:23:13.617Z,0.30
2022-10-01T20:26:22.327Z,0.30
2022-10-01T20:29:18.737Z,0.30
2022-10-01T20:32:13.291Z,0.30
2022-10-01T20:34:49.811Z,0.20
2022-10-01T20:37:48.960Z,0.40
2022-10-01T20:40:49.531Z,0.40
2022-10-01T20:43:22.109Z,0.30
2022-10-01T20:45:51.784Z,0.40
2022-10-01T20:48:29.608Z,0.40
2022-10-01T20:51:04.570Z,0.30
2022-10-01T20:53:50.458Z,0.38
2022-10-01T20:56:23.976Z,0.30
2022-10-01T20:58:59.267Z,0.40
2022-10-01T21:01:27.725Z,0.40
2022-10-01T21:04:05.097Z,0.28
2022-10-01T21:06:39.827Z,0.32
2022-10-01T21:09:26.607Z,0.40
2022-10-01T21:12:10.791Z,0.40
2022-10-01T21:14:53.709Z,0.30
2022-10-01T21:17:57.551Z,0.20
2022-10-01T21:20:47.684Z,0.60
2022-10-01T21:23:37.972Z,0.40
2022-10-01T21:26:25.495Z,0.50
2022-10-01T21:28:51.983Z,0.50
2022-10-01T21:31:39.917Z,0.40
2022-10-01T21:34:17.600Z,0.45
2022-10-01T21:36:51.617Z,0.30
2022-10-01T21:39:33.407Z,0.40
2022-10-01T21:42:35.642Z,0.30
2022-10-01T21:45:09.711Z,0.43
2022-10-01T21:47:55.186Z,0.43
2022-10-01T21:50:35.128Z,0.30
2022-10-01T21:53:30.096Z,0.27
2022-10-01T21:55:58.826Z,0.40
2022-10-01T21:58:49.507Z,0.57
2022-10-01T22:01:55.168Z,0.40
2022-10-01T22:04:45.963Z,0.30
2022-10-01T22:07:17.724Z,0.22
2022-10-01T22:10:08.731Z,0.40
2022-10-01T22:12:40.295Z,0.32
2022-10-01T22:15:29.123Z,0.40
2022-10-01T22:17:57.317Z,0.30
2022-10-01T22:20:29.075Z,0.30
2022-10-01T22:23:01.447Z,0.45
2022-10-01T22:25:31.403Z,0.30
2022-10-01T22:28:03.627Z,0.30
2022-10-01T22:30:34.061Z,0.55
2022-10-01T22:33:08.301Z,0.30
2022-10-01T22:35:56.027Z,0.43
2022-10-01T22:38:36.510Z,0.20
2022-10-01T22:41:10.805Z,0.40
2022-10-01T22:43:37.762Z,0.50
2022-10-01T22:46:07.715Z,0.50
2022-10-01T22:48:50.977Z,0.50
2022-10-01T22:51:44.158Z,0.28
2022-10-01T22:54:24.368Z,0.60
2022-10-01T22:56:50.868Z,0.30
2022-10-01T22:59:46.793Z,0.30
2022-10-01T23:02:44.216Z,0.50
2022-10-01T23:05:15.946Z,0.40
2022-10-01T23:07:58.076Z,0.50
2022-10-01T23:10:45.952Z,0.32
2022-10-01T23:13:24.608Z,0.40
2022-10-01T23:16:00.392Z,0.20
2022-10-01T23:18:40.920Z,0.60
2022-10-01T23:21:23.767Z,0.30
2022-10-01T23:24:08.454Z,0.28
2022-10-01T23:26:39.683Z,0.57
2022-10-01T23:29:17.381Z,0.45
2022-10-01T23:31:57.055Z,0.30
2022-10-01T23:34:29.651Z,0.60
2022-10-01T23:37:41.122Z,0.40
2022-10-01T23:40:11.675Z,0.30
2022-10-01T23:43:02.605Z,0.50
2022-10-01T23:48:46.419Z,0.40
2022-10-01T23:51:21.457Z,0.63
2022-10-01T23:53:59.343Z,0.40
2022-10-01T23:56:49.807Z,0.40
2022-10-01T23:59:45.989Z,0.60
